Time;durP1;ratioP1;P1;durP2;ratioP2;P2;SDS_P1;SDS_P2;PMS_P1;PMS_P2;Temp;Humidity;BMP_temperature;BMP_pressure;BME280_temperature;BME280_humidity;BME280_pressure;Samples;Min_cycle;Max_cycle;Signal;HPM_P1;HPM_P2
2022/11/03 06:01:31;;;;;;;20.75;10.95;;;5.30;99.90;;;;;;5973413;23;20037;-72
2022/11/03 06:04:13;;;;;;;19.00;9.82;;;5.30;99.90;;;;;;4946993;29;20035;-72
2022/11/03 06:06:39;;;;;;;21.20;10.68;;;5.20;99.90;;;;;;4963197;29;20027;-71
2022/11/03 06:09:15;;;;;;;19.33;10.23;;;5.20;99.90;;;;;;4964671;29;20054;-73
2022/11/03 06:11:42;;;;;;;18.77;10.55;;;5.20;99.90;;;;;;4948636;29;20031;-72
2022/11/03 06:14:20;;;;;;;19.05;10.20;;;5.20;99.90;;;;;;4965297;29;20311;-72
2022/11/03 06:17:07;;;;;;;17.85;9.57;;;5.20;99.90;;;;;;4964951;29;20038;-73
2022/11/03 06:19:43;;;;;;;20.35;9.82;;;5.20;99.90;;;;;;4951427;29;20053;-70
2022/11/03 06:22:26;;;;;;;20.02;10.52;;;5.20;99.90;;;;;;4964833;29;20050;-70
2022/11/03 06:24:58;;;;;;;21.23;10.52;;;5.20;99.90;;;;;;4944694;29;20306;-72
2022/11/03 06:27:26;;;;;;;23.23;10.40;;;5.30;99.90;;;;;;4965432;29;20031;-71
2022/11/03 06:29:59;;;;;;;24.63;11.63;;;5.40;99.90;;;;;;4947701;29;20111;-71
2022/11/03 06:32:26;;;;;;;21.95;10.70;;;5.60;99.90;;;;;;4965515;29;20023;-72
2022/11/03 06:34:55;;;;;;;24.95;10.88;;;5.60;99.90;;;;;;4964899;29;20043;-70
2022/11/03 06:37:25;;;;;;;21.73;9.75;;;5.70;99.90;;;;;;4946585;29;20019;-70
2022/11/03 06:39:57;;;;;;;16.92;9.18;;;5.80;99.90;;;;;;4929019;29;20373;-70
2022/11/03 06:42:23;;;;;;;17.65;9.23;;;5.80;99.90;;;;;;4936646;29;20259;-71
2022/11/03 06:44:50;;;;;;;17.40;10.63;;;5.90;99.90;;;;;;4964232;29;20034;-71
2022/11/03 06:47:22;;;;;;;15.43;9.15;;;5.90;99.90;;;;;;4965321;29;20023;-71
2022/11/03 06:49:50;;;;;;;15.30;8.77;;;6.00;99.90;;;;;;4964914;29;20094;-71
2022/11/03 06:52:31;;;;;;;19.85;9.35;;;6.00;99.90;;;;;;4965041;29;20031;-72
2022/11/03 06:55:07;;;;;;;15.70;9.00;;;6.00;99.90;;;;;;4947256;29;20256;-72
2022/11/03 06:57:44;;;;;;;18.48;9.25;;;6.00;99.90;;;;;;4965084;29;20269;-72
2022/11/03 07:00:22;;;;;;;16.65;9.55;;;6.10;99.90;;;;;;4964263;29;20400;-73
2022/11/03 07:03:14;;;;;;;21.00;11.05;;;6.20;99.90;;;;;;4959698;29;20090;-72
2022/11/03 07:05:40;;;;;;;18.85;9.48;;;6.20;99.90;;;;;;4964794;29;20077;-72
2022/11/03 07:08:19;;;;;;;18.55;8.93;;;6.40;99.90;;;;;;4963862;29;20301;-72
2022/11/03 07:10:44;;;;;;;15.73;7.93;;;6.50;99.90;;;;;;4950765;29;20031;-72
2022/11/03 07:13:17;;;;;;;13.02;6.63;;;6.60;99.90;;;;;;4945159;29;20298;-71
2022/11/03 07:15:44;;;;;;;13.90;8.23;;;6.60;99.90;;;;;;4928457;29;20175;-71
2022/11/03 07:18:22;;;;;;;14.00;7.55;;;6.80;99.90;;;;;;4944518;29;20036;-70
2022/11/03 07:20:49;;;;;;;14.43;7.28;;;7.00;99.90;;;;;;4944835;29;20220;-72
2022/11/03 07:23:23;;;;;;;14.65;7.00;;;7.10;99.90;;;;;;4949080;29;20019;-72
2022/11/03 07:25:55;;;;;;;12.18;6.50;;;7.20;99.90;;;;;;4964090;29;20032;-71
2022/11/03 07:28:24;;;;;;;11.48;6.43;;;7.30;99.90;;;;;;4964069;29;20305;-72
2022/11/03 07:30:50;;;;;;;14.88;7.00;;;7.30;99.90;;;;;;4963577;29;20027;-72
2022/11/03 07:33:23;;;;;;;13.15;6.75;;;7.30;99.90;;;;;;4964470;29;20309;-71
2022/11/03 07:35:50;;;;;;;13.23;6.68;;;7.30;99.90;;;;;;4964247;29;20162;-71
2022/11/03 07:38:21;;;;;;;14.27;6.93;;;7.30;99.90;;;;;;4964462;29;20090;-75
2022/11/03 07:40:48;;;;;;;13.73;6.60;;;7.50;99.90;;;;;;4964368;29;20304;-70
2022/11/03 07:43:21;;;;;;;12.63;6.50;;;7.60;99.90;;;;;;4961260;29;20039;-72
2022/11/03 07:45:57;;;;;;;18.90;6.57;;;7.80;99.90;;;;;;4947518;29;20023;-71
2022/11/03 07:48:25;;;;;;;12.18;5.57;;;7.80;99.90;;;;;;4945056;29;20047;-72
2022/11/03 07:50:58;;;;;;;13.80;6.35;;;7.90;99.90;;;;;;4943756;29;20023;-71
2022/11/03 07:53:40;;;;;;;13.73;8.25;;;8.00;99.90;;;;;;4945055;29;20034;-71
2022/11/03 07:56:19;;;;;;;29.88;20.40;;;8.10;99.90;;;;;;4944515;29;20087;-70
2022/11/03 07:58:47;;;;;;;13.52;8.25;;;8.20;99.90;;;;;;4927816;29;20038;-71
2022/11/03 08:01:33;;;;;;;9.30;6.35;;;8.30;99.90;;;;;;4947084;29;20309;-71
2022/11/03 08:04:08;;;;;;;11.02;6.05;;;8.40;99.90;;;;;;4944172;29;20088;-71
2022/11/03 08:06:34;;;;;;;24.50;15.90;;;8.50;99.90;;;;;;4944630;29;20225;-72
2022/11/03 08:09:00;;;;;;;15.20;8.70;;;8.60;99.90;;;;;;4943803;29;20149;-71
2022/11/03 08:11:26;;;;;;;11.60;6.43;;;8.80;99.90;;;;;;4925365;29;20336;-71
2022/11/03 08:13:52;;;;;;;12.40;5.72;;;8.90;99.90;;;;;;4925353;29;20032;-73
2022/11/03 08:16:18;;;;;;;9.50;5.65;;;9.00;99.90;;;;;;4925734;29;20035;-71
2022/11/03 08:18:44;;;;;;;10.65;5.70;;;9.00;99.90;;;;;;4929129;29;20034;-70
2022/11/03 08:21:10;;;;;;;11.13;5.25;;;9.10;99.90;;;;;;4944175;29;20059;-71
2022/11/03 08:23:36;;;;;;;14.55;5.72;;;9.10;99.90;;;;;;4944412;29;20020;-70
2022/11/03 08:26:02;;;;;;;9.55;5.65;;;9.10;99.90;;;;;;4944368;29;20020;-72
2022/11/03 08:28:29;;;;;;;9.88;5.22;;;9.20;99.90;;;;;;4944533;29;20043;-71
2022/11/03 08:31:00;;;;;;;11.35;5.85;;;9.20;99.90;;;;;;4944456;29;20023;-71
2022/11/03 08:33:27;;;;;;;11.93;5.80;;;9.20;99.90;;;;;;4944830;29;20039;-71
2022/11/03 08:35:53;;;;;;;11.60;5.82;;;9.30;99.90;;;;;;4944505;29;20028;-70
2022/11/03 08:38:19;;;;;;;9.05;5.13;;;9.30;99.90;;;;;;4944475;29;20047;-71
2022/11/03 08:40:44;;;;;;;10.18;5.72;;;9.40;99.90;;;;;;4944447;29;20035;-70
2022/11/03 08:43:10;;;;;;;12.35;6.10;;;9.50;99.90;;;;;;4944196;29;20028;-70
2022/11/03 08:45:36;;;;;;;10.85;5.35;;;9.60;99.90;;;;;;4944840;29;20028;-71
2022/11/03 08:48:02;;;;;;;12.02;5.53;;;9.70;99.90;;;;;;4943855;29;20039;-71
2022/11/03 08:50:28;;;;;;;10.82;5.15;;;9.90;99.90;;;;;;4944419;29;20106;-71
2022/11/03 08:52:53;;;;;;;13.20;5.78;;;10.00;99.90;;;;;;4944290;29;20079;-71
2022/11/03 08:55:19;;;;;;;10.60;5.65;;;10.20;99.90;;;;;;4944464;29;20047;-71
2022/11/03 08:57:46;;;;;;;10.27;5.47;;;10.30;99.90;;;;;;4944507;29;20095;-70
2022/11/03 09:00:12;;;;;;;12.95;5.90;;;10.40;99.90;;;;;;4943883;29;20039;-71
2022/11/03 09:02:38;;;;;;;10.90;5.28;;;10.50;99.90;;;;;;4943976;29;20111;-70
2022/11/03 09:05:06;;;;;;;10.65;5.40;;;10.60;99.90;;;;;;4943575;29;20035;-71
2022/11/03 09:07:32;;;;;;;11.70;6.18;;;10.80;99.90;;;;;;4947313;29;20161;-71
2022/11/03 09:09:58;;;;;;;39.67;26.33;;;10.90;99.90;;;;;;4946666;29;20043;-71
2022/11/03 09:12:24;;;;;;;15.27;6.93;;;11.00;99.90;;;;;;4930405;29;20047;-71
2022/11/03 09:14:49;;;;;;;13.95;6.32;;;11.20;99.90;;;;;;4947747;29;20040;-71
2022/11/03 09:17:15;;;;;;;11.55;5.30;;;11.30;99.90;;;;;;4947044;29;20087;-71
2022/11/03 09:19:41;;;;;;;9.82;5.47;;;11.50;99.90;;;;;;4930410;29;20043;-71
2022/11/03 09:22:06;;;;;;;10.55;5.15;;;11.60;99.90;;;;;;4949894;29;20057;-71
2022/11/03 09:24:32;;;;;;;10.70;5.80;;;11.80;99.90;;;;;;4947584;29;20040;-71
2022/11/03 09:26:58;;;;;;;12.57;7.10;;;11.90;99.90;;;;;;4947015;29;20114;-70
2022/11/03 09:29:23;;;;;;;14.40;8.15;;;12.00;99.90;;;;;;4947336;29;20190;-70
2022/11/03 09:31:49;;;;;;;13.95;6.10;;;12.20;99.90;;;;;;4946983;29;20352;-70
2022/11/03 09:34:15;;;;;;;10.75;5.95;;;12.30;99.90;;;;;;4946565;29;20035;-70
2022/11/03 09:36:41;;;;;;;12.55;5.40;;;12.40;99.90;;;;;;4947233;29;20053;-71
2022/11/03 09:39:06;;;;;;;11.82;5.70;;;12.50;99.90;;;;;;4929891;29;20043;-71
2022/11/03 09:41:33;;;;;;;11.10;5.35;;;12.40;99.90;;;;;;4949756;29;20202;-70
2022/11/03 09:43:59;;;;;;;13.82;7.13;;;12.50;99.90;;;;;;4929647;29;20032;-71
2022/11/03 09:46:28;;;;;;;10.05;5.95;;;12.50;99.90;;;;;;4947189;29;20044;-71
2022/11/03 09:48:55;;;;;;;14.70;7.03;;;12.40;99.90;;;;;;4946632;29;20343;-70
2022/11/03 09:51:26;;;;;;;13.73;6.57;;;12.30;99.90;;;;;;4946234;29;20092;-70
2022/11/03 09:53:52;;;;;;;14.95;6.40;;;12.20;99.90;;;;;;4946610;29;20051;-71
2022/11/03 09:56:21;;;;;;;14.77;6.70;;;12.10;99.90;;;;;;4946531;29;20047;-70
2022/11/03 09:58:48;;;;;;;21.25;7.35;;;12.10;99.90;;;;;;4946605;29;20038;-71
2022/11/03 10:01:14;;;;;;;15.23;6.70;;;12.00;99.90;;;;;;4945130;29;20122;-72
2022/11/03 10:03:40;;;;;;;18.80;7.18;;;12.00;99.90;;;;;;4930186;29;20314;-74
2022/11/03 10:06:06;;;;;;;12.15;5.97;;;12.00;99.90;;;;;;4929908;29;20043;-70
2022/11/03 10:08:34;;;;;;;11.75;6.25;;;12.10;99.90;;;;;;4946497;29;20337;-71
2022/11/03 10:11:01;;;;;;;14.55;9.50;;;12.10;99.90;;;;;;4928907;29;20198;-72
2022/11/03 10:13:34;;;;;;;29.33;18.73;;;12.10;99.90;;;;;;4945346;29;20347;-70
2022/11/03 10:16:04;;;;;;;13.18;7.47;;;12.20;99.90;;;;;;4944762;29;20057;-71
2022/11/03 10:18:30;;;;;;;10.68;5.43;;;12.30;99.90;;;;;;4928162;29;20067;-70
2022/11/03 10:21:02;;;;;;;12.10;5.35;;;12.30;99.90;;;;;;4946484;29;20071;-71
2022/11/03 10:23:27;;;;;;;11.45;5.10;;;12.10;99.90;;;;;;4946356;29;20023;-73
2022/11/03 10:26:10;;;;;;;9.95;5.18;;;12.20;99.90;;;;;;4945911;29;20023;-72
2022/11/03 10:28:36;;;;;;;10.45;5.15;;;12.30;99.90;;;;;;4945701;29;20043;-70
2022/11/03 10:31:18;;;;;;;9.70;5.07;;;12.50;99.90;;;;;;4945430;29;20328;-69
2022/11/03 10:33:53;;;;;;;12.18;5.22;;;12.50;99.90;;;;;;4945981;29;20070;-71
2022/11/03 10:36:19;;;;;;;13.95;6.47;;;12.70;99.90;;;;;;4945546;29;20038;-71
2022/11/03 10:38:46;;;;;;;12.90;6.10;;;12.70;99.90;;;;;;4946062;29;20050;-70
2022/11/03 10:41:25;;;;;;;14.45;6.20;;;12.80;99.90;;;;;;4928598;29;20075;-72
2022/11/03 10:44:01;;;;;;;21.13;11.85;;;12.80;99.90;;;;;;4945684;29;20035;-70
2022/11/03 10:46:27;;;;;;;14.27;5.55;;;12.70;99.90;;;;;;4945669;29;20031;-71
2022/11/03 10:49:26;;;;;;;9.70;5.40;;;12.90;99.90;;;;;;4945516;29;20237;-70
2022/11/03 10:52:12;;;;;;;15.00;6.90;;;13.00;99.90;;;;;;4945216;29;20313;-71
2022/11/03 10:54:37;;;;;;;21.98;12.52;;;13.10;99.90;;;;;;4928495;29;20036;-72
2022/11/03 10:57:03;;;;;;;12.65;7.00;;;13.20;99.90;;;;;;4945063;29;20233;-73
2022/11/03 10:59:42;;;;;;;15.35;6.68;;;13.20;99.90;;;;;;4945894;29;20157;-70
2022/11/03 11:02:17;;;;;;;12.23;5.30;;;13.30;99.90;;;;;;4945393;29;20058;-73
2022/11/03 11:04:44;;;;;;;13.45;8.23;;;13.40;99.90;;;;;;4929425;29;20306;-72
2022/11/03 11:07:25;;;;;;;21.13;12.68;;;13.50;99.90;;;;;;4944902;29;20023;-73
2022/11/03 11:10:04;;;;;;;8.48;5.45;;;13.40;99.90;;;;;;4945321;29;20160;-75
2022/11/03 11:12:30;;;;;;;14.23;5.80;;;13.50;99.90;;;;;;4945180;29;20318;-72
2022/11/03 11:14:57;;;;;;;16.92;5.38;;;13.40;99.90;;;;;;4945238;29;20083;-71
2022/11/03 11:17:45;;;;;;;13.07;5.95;;;13.50;99.90;;;;;;4944650;29;20051;-75
2022/11/03 11:20:27;;;;;;;12.50;5.70;;;13.50;99.90;;;;;;4944838;29;20356;-70
2022/11/03 11:22:52;;;;;;;12.65;5.20;;;13.50;99.90;;;;;;4928052;29;20258;-70
2022/11/03 11:25:18;;;;;;;10.82;5.47;;;13.50;99.90;;;;;;4944423;29;20079;-71
2022/11/03 11:27:44;;;;;;;10.60;5.43;;;13.50;99.90;;;;;;4945203;29;20148;-70
2022/11/03 11:30:18;;;;;;;10.52;5.43;;;13.50;99.90;;;;;;4940403;29;20043;-71
2022/11/03 11:32:44;;;;;;;12.00;5.60;;;13.60;99.90;;;;;;4944693;29;20049;-70
2022/11/03 11:35:15;;;;;;;9.10;5.18;;;13.60;99.90;;;;;;4944589;29;20087;-72
2022/11/03 11:37:41;;;;;;;9.77;5.20;;;13.70;99.90;;;;;;4944609;29;20245;-70
2022/11/03 11:40:25;;;;;;;10.00;4.78;;;13.80;99.90;;;;;;4944652;29;20038;-70
2022/11/03 11:43:00;;;;;;;10.25;5.20;;;14.00;99.90;;;;;;4945042;29;20023;-71
2022/11/03 11:46:03;;;;;;;12.80;6.35;;;14.00;99.90;;;;;;4944973;29;20335;-70
2022/11/03 11:48:29;;;;;;;7.53;4.47;;;14.10;99.90;;;;;;4944164;29;20027;-69
2022/11/03 11:50:57;;;;;;;10.43;5.20;;;14.10;99.90;;;;;;4945168;29;20023;-70
2022/11/03 11:53:24;;;;;;;13.63;5.63;;;14.20;99.90;;;;;;4944665;29;20035;-71
2022/11/03 11:55:58;;;;;;;8.40;4.88;;;14.30;99.90;;;;;;4944451;29;20266;-72
2022/11/03 11:58:30;;;;;;;9.18;4.30;;;14.30;99.90;;;;;;4944175;29;20042;-69
2022/11/03 12:01:00;;;;;;;11.75;5.15;;;14.20;99.90;;;;;;4944932;29;20107;-72
2022/11/03 12:03:37;;;;;;;9.15;5.40;;;14.20;99.90;;;;;;4943734;29;20062;-72
2022/11/03 12:06:03;;;;;;;12.63;5.50;;;14.20;99.90;;;;;;4944565;29;20045;-71
2022/11/03 12:08:30;;;;;;;12.50;4.80;;;14.40;99.90;;;;;;4924111;29;20043;-70
2022/11/03 12:10:58;;;;;;;9.35;4.93;;;14.30;99.90;;;;;;4940489;29;20063;-70
2022/11/03 12:13:35;;;;;;;10.93;4.50;;;14.30;99.90;;;;;;4943881;29;20036;-71
2022/11/03 12:16:00;;;;;;;11.73;4.10;;;14.40;99.90;;;;;;4927532;29;20040;-70
2022/11/03 12:18:37;;;;;;;11.90;4.57;;;14.40;99.90;;;;;;4926966;29;20042;-70
2022/11/03 12:21:12;;;;;;;11.88;4.60;;;14.50;99.90;;;;;;4944215;29;20031;-70
2022/11/03 12:23:41;;;;;;;9.80;4.18;;;14.50;99.90;;;;;;4944453;29;20043;-71
2022/11/03 12:26:25;;;;;;;;;;;14.50;99.90;;;;;;4944655;29;20038;-71
2022/11/03 12:28:51;;;;;;;9.65;4.30;;;14.40;99.90;;;;;;4944679;29;19917;-71
2022/11/03 12:31:17;;;;;;;9.27;4.93;;;14.30;99.90;;;;;;4943879;29;20031;-69
2022/11/03 12:33:42;;;;;;;13.57;5.47;;;14.10;99.90;;;;;;4944350;29;20091;-70
2022/11/03 12:36:08;;;;;;;13.35;4.97;;;14.00;99.90;;;;;;4943903;29;20047;-71
2022/11/03 12:38:35;;;;;;;16.38;5.97;;;13.90;99.90;;;;;;4927764;29;20035;-69
2022/11/03 12:41:19;;;;;;;11.23;4.65;;;13.90;99.90;;;;;;4945964;29;20027;-70
2022/11/03 12:43:47;;;;;;;10.88;4.65;;;13.80;99.90;;;;;;4931480;29;20211;-69
2022/11/03 12:46:15;;;;;;;11.68;4.45;;;13.90;99.90;;;;;;4948557;29;20045;-70
2022/11/03 12:48:42;;;;;;;11.70;4.70;;;13.90;99.90;;;;;;4931302;29;20246;-69
2022/11/03 12:51:15;;;;;;;10.32;5.00;;;13.90;99.90;;;;;;4947781;29;20050;-71
2022/11/03 12:53:42;;;;;;;15.30;4.68;;;14.00;99.90;;;;;;4947747;29;20039;-70
2022/11/03 12:56:08;;;;;;;13.98;4.60;;;14.00;99.90;;;;;;4947435;29;20298;-70
2022/11/03 12:58:34;;;;;;;9.55;4.55;;;14.00;99.90;;;;;;4947965;29;20082;-71
2022/11/03 13:01:01;;;;;;;10.77;4.45;;;14.10;99.90;;;;;;4947580;29;20194;-71
2022/11/03 13:03:27;;;;;;;10.10;4.40;;;14.00;99.90;;;;;;4946867;29;20051;-70
2022/11/03 13:05:54;;;;;;;10.02;4.47;;;13.90;99.90;;;;;;4947479;29;20028;-70
2022/11/03 13:08:20;;;;;;;11.18;4.70;;;13.80;99.90;;;;;;4947010;29;20079;-69
2022/11/03 13:10:46;;;;;;;11.70;4.68;;;13.90;99.90;;;;;;4947134;29;20038;-70
2022/11/03 13:13:12;;;;;;;9.80;4.47;;;13.80;99.90;;;;;;4946938;29;20028;-70
2022/11/03 13:15:38;;;;;;;7.32;4.28;;;13.90;99.90;;;;;;4947484;29;20091;-69
2022/11/03 13:18:07;;;;;;;10.35;4.70;;;13.90;99.90;;;;;;4947547;29;20028;-69
2022/11/03 13:20:33;;;;;;;10.15;4.75;;;13.80;99.90;;;;;;4946549;29;20083;-69
2022/11/03 13:23:03;;;;;;;8.35;4.00;;;13.80;99.90;;;;;;4947418;29;20038;-69
2022/11/03 13:25:29;;;;;;;10.23;4.22;;;13.80;99.90;;;;;;4946902;29;20040;-69
2022/11/03 13:27:55;;;;;;;7.65;4.00;;;13.80;99.90;;;;;;4947044;29;20031;-70
2022/11/03 13:30:22;;;;;;;8.48;4.55;;;13.80;99.90;;;;;;4946802;29;20103;-70
2022/11/03 13:32:48;;;;;;;8.95;4.65;;;13.80;99.90;;;;;;4946852;29;20094;-70
2022/11/03 13:35:15;;;;;;;8.77;4.88;;;13.90;99.90;;;;;;4946543;29;20042;-69
2022/11/03 13:37:41;;;;;;;10.63;5.13;;;13.80;99.90;;;;;;4946992;29;20221;-70
2022/11/03 13:40:08;;;;;;;11.07;4.60;;;13.90;99.90;;;;;;4946543;29;20023;-71
2022/11/03 13:42:34;;;;;;;12.27;5.18;;;13.90;99.90;;;;;;4946522;29;20094;-70
2022/11/03 13:44:59;;;;;;;7.38;4.50;;;13.90;99.90;;;;;;4946788;29;20209;-69
2022/11/03 13:47:25;;;;;;;13.23;5.30;;;13.90;99.90;;;;;;4946495;29;20023;-70
2022/11/03 13:49:51;;;;;;;8.82;4.63;;;14.00;99.90;;;;;;4946844;29;20103;-69
2022/11/03 13:52:18;;;;;;;12.27;5.43;;;14.00;99.90;;;;;;4946268;29;20031;-71
2022/11/03 13:54:44;;;;;;;14.73;5.78;;;14.00;99.90;;;;;;4946923;29;20136;-69
2022/11/03 13:57:13;;;;;;;9.68;5.50;;;14.00;99.90;;;;;;4946474;29;20024;-69
2022/11/03 13:59:38;;;;;;;11.85;5.72;;;14.00;99.90;;;;;;4946682;29;20075;-69
2022/11/03 14:02:05;;;;;;;13.43;5.85;;;14.00;99.90;;;;;;4946409;29;20044;-69
2022/11/03 14:04:31;;;;;;;12.50;5.95;;;14.00;99.90;;;;;;4946390;29;20325;-69
2022/11/03 14:06:57;;;;;;;9.18;4.97;;;13.90;99.90;;;;;;4946161;29;20143;-69
2022/11/03 14:09:23;;;;;;;11.70;6.60;;;13.90;99.90;;;;;;4945589;29;20035;-70
2022/11/03 14:14:33;;;;;;;14.77;5.82;;;13.80;99.90;;;;;;4946030;29;20292;-70
2022/11/03 14:16:59;;;;;;;17.15;8.50;;;13.70;99.90;;;;;;4946582;29;20055;-70
2022/11/03 14:19:25;;;;;;;20.33;14.25;;;13.70;99.90;;;;;;4945461;29;20046;-70
2022/11/03 14:21:50;;;;;;;14.80;7.57;;;13.70;99.90;;;;;;4946368;29;20297;-70
2022/11/03 14:24:16;;;;;;;10.43;5.78;;;13.70;99.90;;;;;;4945879;29;20032;-69
2022/11/03 14:26:42;;;;;;;13.77;8.23;;;13.60;99.90;;;;;;4946327;29;20214;-69
2022/11/03 14:29:08;;;;;;;15.25;6.70;;;13.60;99.90;;;;;;4945385;29;20042;-69
2022/11/03 14:31:34;;;;;;;11.30;6.82;;;13.60;99.90;;;;;;4945262;29;20116;-70
2022/11/03 14:34:00;;;;;;;15.02;8.13;;;13.60;99.90;;;;;;4945835;29;20043;-70
2022/11/03 14:36:26;;;;;;;14.80;8.07;;;13.60;99.90;;;;;;4946662;29;20036;-70
2022/11/03 14:38:55;;;;;;;17.30;7.57;;;13.50;99.90;;;;;;4946182;29;20036;-70
2022/11/03 14:44:05;;;;;;;10.02;6.05;;;13.40;99.90;;;;;;4945859;29;20039;-70
2022/11/03 14:46:31;;;;;;;12.13;5.90;;;13.40;99.90;;;;;;4944322;29;20031;-70
2022/11/03 14:48:57;;;;;;;12.50;6.22;;;13.30;99.90;;;;;;4945574;29;20042;-70
2022/11/03 14:51:23;;;;;;;13.38;6.70;;;13.30;99.90;;;;;;4945517;29;20035;-71
2022/11/03 14:53:48;;;;;;;14.27;7.15;;;13.30;99.90;;;;;;4945902;29;20027;-70
2022/11/03 14:56:14;;;;;;;15.07;6.28;;;13.20;99.90;;;;;;4945427;29;20103;-69
2022/11/03 14:58:40;;;;;;;14.57;6.57;;;13.20;99.90;;;;;;4945138;29;20035;-69
2022/11/03 15:01:06;;;;;;;11.20;6.20;;;13.20;99.90;;;;;;4928329;29;20040;-69
2022/11/03 15:03:31;;;;;;;15.00;7.82;;;13.10;99.90;;;;;;4944769;29;20071;-70
2022/11/03 15:05:57;;;;;;;15.48;7.15;;;13.10;99.90;;;;;;4945381;29;20027;-71
2022/11/03 15:08:23;;;;;;;15.40;7.03;;;13.00;99.90;;;;;;4927783;29;20028;-70
2022/11/03 15:10:49;;;;;;;14.65;7.35;;;12.90;99.90;;;;;;4945143;29;20023;-70
2022/11/03 15:13:15;;;;;;;15.18;7.15;;;12.90;99.90;;;;;;4945183;29;20309;-70
2022/11/03 15:15:41;;;;;;;16.95;7.07;;;12.90;99.90;;;;;;4927446;29;20023;-71
2022/11/03 15:18:08;;;;;;;16.70;7.03;;;12.80;99.90;;;;;;4945070;29;20035;-71
2022/11/03 15:20:34;;;;;;;15.77;7.15;;;12.80;99.90;;;;;;4944757;29;20045;-70
2022/11/03 15:23:04;;;;;;;18.02;6.88;;;12.80;99.90;;;;;;4945362;29;20032;-71
2022/11/03 15:25:31;;;;;;;11.23;5.07;;;12.80;99.90;;;;;;4945039;29;20035;-69
2022/11/03 15:27:57;;;;;;;14.55;6.50;;;12.90;99.90;;;;;;4945345;29;20039;-69
2022/11/03 15:30:23;;;;;;;14.70;7.00;;;13.00;99.90;;;;;;4944379;29;20301;-69
2022/11/03 15:32:48;;;;;;;13.35;7.68;;;13.00;99.90;;;;;;4944820;29;20067;-70
2022/11/03 15:35:15;;;;;;;12.70;6.18;;;13.00;99.90;;;;;;4943850;29;20039;-70
2022/11/03 15:37:43;;;;;;;12.13;6.68;;;13.00;99.90;;;;;;4944775;29;20039;-70
2022/11/03 15:40:12;;;;;;;22.77;15.25;;;12.90;99.90;;;;;;4944861;29;20028;-70
2022/11/03 15:42:39;;;;;;;10.80;5.85;;;12.90;99.90;;;;;;4944115;29;20038;-69
2022/11/03 15:45:11;;;;;;;12.57;4.95;;;13.00;99.90;;;;;;4944970;29;20035;-70
2022/11/03 15:47:36;;;;;;;12.02;6.50;;;13.00;99.90;;;;;;4944497;29;20210;-70
2022/11/03 15:50:03;;;;;;;9.80;5.32;;;13.00;99.90;;;;;;4944897;29;20070;-70
2022/11/03 15:52:29;;;;;;;11.38;6.60;;;13.00;99.90;;;;;;4944623;29;20036;-69
2022/11/03 15:54:54;;;;;;;12.07;5.63;;;12.90;99.90;;;;;;4944827;29;20067;-69
2022/11/03 15:57:20;;;;;;;21.95;11.10;;;12.90;99.90;;;;;;4941722;29;20039;-70
2022/11/03 15:59:46;;;;;;;12.27;5.55;;;12.90;99.90;;;;;;4943163;29;20039;-71
2022/11/03 16:02:11;;;;;;;10.32;6.00;;;12.90;99.90;;;;;;4935275;29;20132;-70
2022/11/03 16:04:37;;;;;;;9.80;5.53;;;12.90;99.90;;;;;;4924229;29;20028;-69
2022/11/03 16:07:06;;;;;;;9.88;5.03;;;12.90;99.90;;;;;;4937195;29;20058;-70
2022/11/03 16:09:32;;;;;;;9.70;4.97;;;12.90;99.90;;;;;;4942501;29;20059;-69
2022/11/03 16:11:57;;;;;;;24.33;10.55;;;13.00;99.90;;;;;;4943348;29;20043;-69
2022/11/03 16:14:23;;;;;;;23.02;11.25;;;13.10;99.90;;;;;;4925948;29;20050;-70
2022/11/03 16:16:49;;;;;;;25.13;11.40;;;13.10;99.90;;;;;;4946291;29;20024;-70
2022/11/03 16:19:15;;;;;;;32.75;12.85;;;13.10;99.90;;;;;;4947426;29;20075;-70
2022/11/03 16:21:41;;;;;;;10.27;4.55;;;13.10;99.90;;;;;;4946739;29;20047;-70
2022/11/03 16:24:07;;;;;;;11.75;6.28;;;13.30;99.90;;;;;;4947490;29;20031;-70
2022/11/03 16:26:32;;;;;;;15.52;6.40;;;13.20;99.90;;;;;;4946689;29;20039;-70
2022/11/03 16:28:59;;;;;;;13.45;6.45;;;13.20;99.90;;;;;;4947406;29;20086;-70
2022/11/03 16:31:25;;;;;;;8.75;5.03;;;13.10;99.90;;;;;;4946328;29;20102;-71
2022/11/03 16:33:50;;;;;;;9.75;5.43;;;13.10;99.90;;;;;;4947319;29;20033;-72
2022/11/03 16:36:17;;;;;;;7.95;5.03;;;13.10;99.90;;;;;;4930523;29;20055;-70
2022/11/03 16:38:43;;;;;;;9.27;4.80;;;13.00;99.90;;;;;;4946658;29;20090;-71
2022/11/03 16:41:09;;;;;;;7.47;4.82;;;13.00;99.90;;;;;;4947031;29;20031;-71
2022/11/03 16:43:35;;;;;;;8.77;4.85;;;12.90;99.90;;;;;;4945962;29;20058;-70
2022/11/03 16:46:01;;;;;;;8.30;4.30;;;12.90;99.90;;;;;;4946818;29;20023;-70
2022/11/03 16:48:26;;;;;;;8.73;4.65;;;12.80;99.90;;;;;;4946097;29;20028;-69
2022/11/03 16:50:53;;;;;;;7.30;4.57;;;12.80;99.90;;;;;;4946976;29;20162;-70
2022/11/03 16:53:19;;;;;;;7.60;4.18;;;12.80;99.90;;;;;;4929927;29;20354;-70
2022/11/03 16:55:47;;;;;;;10.55;4.55;;;12.70;99.90;;;;;;4946336;29;20079;-70
2022/11/03 16:58:12;;;;;;;7.50;4.45;;;12.70;99.90;;;;;;4946691;29;20034;-70
2022/11/03 17:00:38;;;;;;;8.60;4.88;;;12.70;99.90;;;;;;4946380;29;20035;-70
2022/11/03 17:03:04;;;;;;;9.45;4.75;;;12.60;99.90;;;;;;4946446;29;20067;-70
2022/11/03 17:05:29;;;;;;;9.15;5.07;;;12.60;99.90;;;;;;4943619;29;20024;-71
2022/11/03 17:07:55;;;;;;;9.93;6.90;;;12.60;99.90;;;;;;4927433;29;20420;-70
2022/11/03 17:10:22;;;;;;;12.05;6.80;;;12.60;99.90;;;;;;4927289;29;20031;-71
2022/11/03 17:12:48;;;;;;;12.35;6.03;;;12.50;99.90;;;;;;4909712;29;20218;-71
2022/11/03 17:15:16;;;;;;;9.60;5.78;;;12.50;99.90;;;;;;4927859;29;20032;-70
2022/11/03 17:17:41;;;;;;;9.25;4.88;;;12.50;99.90;;;;;;4926905;29;20028;-70
2022/11/03 17:20:09;;;;;;;11.38;5.55;;;12.40;99.90;;;;;;4927053;29;20218;-70
2022/11/03 17:22:35;;;;;;;9.55;4.60;;;12.50;99.90;;;;;;4926724;29;20095;-70
2022/11/03 17:25:01;;;;;;;10.63;5.30;;;12.50;99.90;;;;;;4927108;29;20035;-72
2022/11/03 17:27:30;;;;;;;7.78;4.63;;;12.50;99.90;;;;;;4926576;29;20065;-70
2022/11/03 17:30:09;;;;;;;10.05;5.20;;;12.60;99.90;;;;;;4910331;29;20047;-71
2022/11/03 17:32:39;;;;;;;11.07;5.82;;;12.60;99.90;;;;;;4944088;29;20332;-70
2022/11/03 17:35:19;;;;;;;12.38;5.53;;;12.60;99.90;;;;;;4929238;29;20221;-71
2022/11/03 17:37:45;;;;;;;9.85;5.03;;;12.50;99.90;;;;;;4945409;29;20416;-71
2022/11/03 17:40:29;;;;;;;7.53;4.10;;;12.50;99.90;;;;;;4945570;29;20293;-72
2022/11/03 17:42:56;;;;;;;9.07;4.75;;;12.60;99.90;;;;;;4945832;29;20055;-69
2022/11/03 17:45:24;;;;;;;11.32;5.68;;;12.70;99.90;;;;;;4946220;29;20027;-71
2022/11/03 17:47:50;;;;;;;;;;;12.70;99.90;;;;;;4946411;29;20091;-71
2022/11/03 17:50:21;;;;;;;9.45;5.63;;;12.70;99.90;;;;;;4945798;29;19910;-70
2022/11/03 17:52:49;;;;;;;7.68;4.57;;;12.70;99.90;;;;;;4945434;29;20098;-71
2022/11/03 17:55:35;;;;;;;9.35;4.88;;;12.70;99.90;;;;;;4945440;29;20094;-70
2022/11/03 17:58:03;;;;;;;8.55;4.47;;;12.70;99.90;;;;;;4945521;29;20031;-70
2022/11/03 18:00:29;;;;;;;28.67;18.90;;;12.70;99.90;;;;;;4944699;29;20023;-71
2022/11/03 18:02:56;;;;;;;13.82;9.48;;;12.70;99.90;;;;;;4945852;29;20367;-71
2022/11/03 18:05:25;;;;;;;8.45;5.10;;;12.70;99.90;;;;;;4929456;29;20193;-72
2022/11/03 18:07:53;;;;;;;8.10;4.90;;;12.70;99.90;;;;;;4945050;29;20047;-71
2022/11/03 18:10:27;;;;;;;9.73;4.50;;;12.60;99.90;;;;;;4944912;29;20272;-71
2022/11/03 18:13:15;;;;;;;9.63;4.95;;;12.60;99.90;;;;;;4945825;29;20024;-71
2022/11/03 18:15:46;;;;;;;8.88;4.80;;;12.60;99.90;;;;;;4945459;29;20032;-72
2022/11/03 18:18:34;;;;;;;9.52;4.95;;;12.60;99.90;;;;;;4945303;29;20325;-72
2022/11/03 18:21:00;;;;;;;12.00;7.18;;;12.50;99.90;;;;;;4945889;29;20122;-70
2022/11/03 18:23:31;;;;;;;10.80;5.38;;;12.40;99.90;;;;;;4945001;29;20099;-72
2022/11/03 18:26:02;;;;;;;10.00;5.30;;;12.40;99.90;;;;;;4945569;29;20325;-71
2022/11/03 18:28:28;;;;;;;10.15;5.65;;;12.40;99.90;;;;;;4945415;29;20059;-72
2022/11/03 18:30:57;;;;;;;10.75;5.57;;;12.30;99.90;;;;;;4927927;29;20035;-71
2022/11/03 18:33:31;;;;;;;10.40;5.72;;;12.30;99.90;;;;;;4945108;29;20243;-70
2022/11/03 18:35:57;;;;;;;9.73;5.70;;;12.20;99.90;;;;;;4944786;29;20054;-73
2022/11/03 18:38:27;;;;;;;10.55;5.78;;;12.20;99.90;;;;;;4944015;29;20031;-70
2022/11/03 18:40:53;;;;;;;10.05;5.60;;;12.20;99.90;;;;;;4944667;29;20468;-71
2022/11/03 18:43:23;;;;;;;9.68;6.00;;;12.30;99.90;;;;;;4944657;29;20036;-72
2022/11/03 18:45:50;;;;;;;11.55;6.13;;;12.30;99.90;;;;;;4944697;29;20130;-71
2022/11/03 18:48:19;;;;;;;11.50;6.22;;;12.30;99.90;;;;;;4944874;29;20027;-71
2022/11/03 18:50:50;;;;;;;10.95;6.25;;;12.30;99.90;;;;;;4944464;29;20241;-69
2022/11/03 18:53:19;;;;;;;10.38;5.85;;;12.30;99.90;;;;;;4928277;29;20294;-70
2022/11/03 18:55:45;;;;;;;11.32;6.30;;;12.30;99.90;;;;;;4927384;29;20075;-71